createdAt,value
2018-08-17T00:01:03.770Z,59.00
2018-08-17T00:03:33.092Z,59.30
2018-08-17T00:06:02.383Z,59.40
2018-08-17T00:08:31.769Z,60.20
2018-08-17T00:11:01.093Z,59.70
2018-08-17T00:13:30.323Z,59.90
2018-08-17T00:15:59.623Z,60.00
2018-08-17T00:18:28.904Z,60.20
2018-08-17T00:20:58.191Z,60.30
2018-08-17T00:23:27.453Z,60.30
2018-08-17T00:25:56.770Z,60.40
2018-08-17T00:28:26.075Z,60.60
2018-08-17T00:30:55.354Z,60.70
2018-08-17T00:33:24.651Z,60.90
2018-08-17T00:35:53.970Z,61.00
2018-08-17T00:38:23.271Z,61.20
2018-08-17T00:40:52.461Z,61.40
2018-08-17T00:43:21.743Z,61.60
2018-08-17T00:45:50.979Z,61.60
2018-08-17T00:48:20.268Z,61.90
2018-08-17T00:50:49.487Z,62.10
2018-08-17T00:53:18.799Z,62.40
2018-08-17T00:55:48.056Z,62.50
2018-08-17T00:58:17.328Z,62.70
2018-08-17T01:00:46.651Z,63.30
2018-08-17T01:03:15.942Z,63.10
2018-08-17T01:05:45.172Z,63.40
2018-08-17T01:08:14.491Z,63.60
2018-08-17T01:10:43.775Z,63.80
2018-08-17T01:13:14.571Z,64.00
2018-08-17T01:15:43.879Z,63.80
2018-08-17T01:18:13.781Z,63.80
2018-08-17T01:20:43.010Z,63.80
2018-08-17T01:23:12.243Z,64.50
2018-08-17T01:25:41.467Z,64.40
2018-08-17T01:28:10.944Z,64.80
2018-08-17T01:30:40.239Z,65.10
2018-08-17T01:33:09.551Z,65.30
2018-08-17T01:35:38.799Z,65.50
2018-08-17T01:38:08.108Z,65.50
2018-08-17T01:40:37.463Z,65.70
2018-08-17T01:43:07.390Z,66.00
2018-08-17T01:45:36.623Z,66.00
2018-08-17T01:48:06.156Z,66.20
2018-08-17T01:50:35.404Z,66.30
2018-08-17T01:53:04.804Z,66.60
2018-08-17T01:55:34.139Z,66.80
2018-08-17T01:58:03.508Z,67.10
2018-08-17T02:00:32.750Z,67.20
2018-08-17T02:03:02.025Z,67.40
2018-08-17T02:05:31.255Z,67.70
2018-08-17T02:08:00.499Z,67.80
2018-08-17T02:10:29.710Z,68.10
2018-08-17T02:12:59.080Z,68.20
2018-08-17T02:15:28.300Z,68.60
2018-08-17T02:17:58.485Z,68.60
2018-08-17T02:20:27.733Z,68.70
2018-08-17T02:22:57.024Z,68.90
2018-08-17T02:25:26.303Z,69.10
2018-08-17T02:27:55.575Z,69.20
2018-08-17T02:30:24.831Z,69.50
2018-08-17T02:32:54.051Z,69.70
2018-08-17T02:35:23.322Z,69.80
2018-08-17T02:37:52.569Z,70.10
2018-08-17T02:40:21.959Z,69.90
2018-08-17T02:42:51.213Z,70.00
2018-08-17T02:45:20.492Z,70.50
2018-08-17T02:47:49.719Z,70.80
2018-08-17T02:50:19.097Z,70.90
2018-08-17T02:52:48.360Z,71.00
2018-08-17T02:55:17.655Z,70.90
2018-08-17T02:57:46.857Z,71.00
2018-08-17T03:00:16.147Z,70.90
2018-08-17T03:02:45.327Z,70.90
2018-08-17T03:05:14.608Z,71.00
2018-08-17T03:07:43.973Z,71.20
2018-08-17T03:10:13.258Z,71.30
2018-08-17T03:12:42.499Z,71.50
2018-08-17T03:15:11.887Z,71.70
2018-08-17T03:17:41.089Z,71.90
2018-08-17T03:20:10.353Z,72.10
2018-08-17T03:22:39.616Z,72.20
2018-08-17T03:25:09.011Z,72.20
2018-08-17T03:27:38.294Z,72.30
2018-08-17T03:30:07.663Z,72.30
2018-08-17T03:32:36.936Z,72.50
2018-08-17T03:35:06.571Z,72.60
2018-08-17T03:37:35.795Z,72.50
2018-08-17T03:40:05.097Z,72.60
2018-08-17T03:42:34.311Z,72.80
2018-08-17T03:45:03.616Z,73.10
2018-08-17T03:47:32.854Z,73.10
2018-08-17T03:50:02.131Z,73.00
2018-08-17T03:52:31.379Z,73.30
2018-08-17T03:55:00.655Z,73.40
2018-08-17T03:57:29.935Z,73.70
2018-08-17T03:59:59.261Z,73.90
2018-08-17T04:02:28.529Z,73.90
2018-08-17T04:04:57.984Z,73.70
2018-08-17T04:07:27.133Z,73.80
2018-08-17T04:09:56.388Z,73.80
2018-08-17T04:12:25.575Z,73.80
2018-08-17T04:14:54.812Z,74.00
2018-08-17T04:17:24.068Z,74.20
2018-08-17T04:19:53.380Z,74.20
2018-08-17T04:22:22.716Z,74.40
2018-08-17T04:24:51.927Z,74.60
2018-08-17T04:27:21.205Z,74.70
2018-08-17T04:29:50.554Z,74.80
2018-08-17T04:32:19.822Z,75.90
2018-08-17T04:34:49.059Z,75.10
2018-08-17T04:37:18.312Z,76.10
2018-08-17T04:39:47.574Z,75.30
2018-08-17T04:42:16.884Z,75.60
2018-08-17T04:44:46.160Z,75.60
2018-08-17T04:47:15.394Z,75.60
2018-08-17T04:49:44.599Z,75.60
2018-08-17T04:52:13.850Z,75.70
2018-08-17T04:54:43.185Z,75.90
2018-08-17T04:57:12.436Z,75.70
2018-08-17T04:59:41.727Z,75.80
2018-08-17T05:02:10.989Z,75.80
2018-08-17T05:04:40.289Z,75.90
2018-08-17T05:07:10.582Z,75.90
2018-08-17T05:09:39.830Z,76.00
2018-08-17T05:12:09.479Z,75.30
2018-08-17T05:14:39.003Z,75.90
2018-08-17T05:17:08.267Z,76.00
2018-08-17T05:19:37.480Z,76.20
2018-08-17T05:22:06.811Z,76.30
2018-08-17T05:24:36.019Z,76.50
2018-08-17T05:27:06.846Z,76.50
2018-08-17T05:29:36.100Z,76.50
2018-08-17T05:32:05.352Z,76.70
2018-08-17T05:34:34.551Z,76.60
2018-08-17T05:37:04.221Z,76.80
2018-08-17T05:39:33.583Z,76.80
2018-08-17T05:42:02.979Z,76.50
2018-08-17T05:44:32.271Z,76.30
2018-08-17T05:47:01.615Z,76.20
2018-08-17T05:49:30.809Z,76.00
2018-08-17T05:52:00.103Z,75.90
2018-08-17T05:54:29.367Z,75.80
2018-08-17T05:56:58.684Z,75.80
2018-08-17T05:59:27.923Z,75.70
2018-08-17T06:01:57.271Z,75.50
2018-08-17T06:04:26.522Z,75.30
2018-08-17T06:06:55.865Z,75.10
2018-08-17T06:09:25.092Z,74.60
2018-08-17T06:11:54.439Z,74.20
2018-08-17T06:14:23.704Z,73.40
2018-08-17T06:16:52.968Z,73.60
2018-08-17T06:19:23.250Z,72.00
2018-08-17T06:21:52.447Z,71.50
2018-08-17T06:24:21.675Z,70.90
2018-08-17T06:26:51.074Z,70.60
2018-08-17T06:29:20.378Z,70.30
2018-08-17T06:31:49.767Z,70.00
2018-08-17T06:34:19.063Z,69.20
2018-08-17T06:36:48.376Z,68.80
2018-08-17T06:39:17.586Z,68.40
2018-08-17T06:41:46.867Z,67.80
2018-08-17T06:44:16.066Z,67.10
2018-08-17T06:46:45.489Z,66.50
2018-08-17T06:49:14.729Z,66.50
2018-08-17T06:51:44.043Z,65.40
2018-08-17T06:54:13.221Z,64.80
2018-08-17T06:56:42.500Z,64.30
2018-08-17T06:59:11.717Z,63.60
2018-08-17T07:01:41.060Z,62.90
2018-08-17T07:04:10.323Z,62.20
2018-08-17T07:06:39.693Z,61.90
2018-08-17T07:09:10.183Z,61.30
2018-08-17T07:11:40.223Z,61.00
2018-08-17T07:14:10.001Z,60.40
2018-08-17T07:16:39.741Z,60.00
2018-08-17T07:19:08.991Z,59.60
2018-08-17T07:21:38.355Z,59.00
2018-08-17T07:24:07.652Z,58.50
2018-08-17T07:26:36.967Z,58.20
2018-08-17T07:29:06.259Z,58.00
2018-08-17T07:31:35.634Z,57.60
2018-08-17T07:34:04.888Z,57.30
2018-08-17T07:36:34.129Z,56.90
2018-08-17T07:39:03.641Z,56.70
2018-08-17T07:41:32.958Z,56.40
2018-08-17T07:44:02.339Z,56.00
2018-08-17T07:46:31.599Z,55.60
2018-08-17T07:49:00.825Z,55.30
2018-08-17T07:51:30.103Z,55.20
2018-08-17T07:53:59.343Z,55.60
2018-08-17T07:56:28.567Z,54.60
2018-08-17T07:58:57.819Z,54.30
2018-08-17T08:01:27.104Z,54.00
2018-08-17T08:03:56.416Z,53.60
2018-08-17T08:06:25.716Z,53.10
2018-08-17T08:08:54.991Z,52.60
2018-08-17T08:11:24.222Z,52.30
2018-08-17T08:13:53.481Z,52.00
2018-08-17T08:16:22.811Z,51.50
2018-08-17T08:18:52.137Z,50.90
2018-08-17T08:21:21.367Z,50.50
2018-08-17T08:23:50.672Z,50.20
2018-08-17T08:26:20.040Z,49.80
2018-08-17T08:28:49.423Z,49.40
2018-08-17T08:31:18.711Z,48.80
2018-08-17T08:33:48.013Z,48.40
2018-08-17T08:36:17.320Z,48.00
2018-08-17T08:38:46.552Z,47.60
2018-08-17T08:41:15.873Z,47.10
2018-08-17T08:43:45.118Z,46.60
2018-08-17T08:46:14.392Z,46.00
2018-08-17T08:48:43.628Z,45.30
2018-08-17T08:51:12.836Z,45.00
2018-08-17T08:53:42.073Z,44.70
2018-08-17T08:56:11.300Z,44.50
2018-08-17T08:58:40.674Z,44.50
2018-08-17T09:01:09.951Z,44.40
2018-08-17T09:03:39.274Z,43.90
2018-08-17T09:06:08.518Z,43.20
2018-08-17T09:08:37.796Z,43.40
2018-08-17T09:11:07.147Z,42.50
2018-08-17T09:13:36.468Z,42.60
2018-08-17T09:16:06.059Z,42.10
2018-08-17T09:18:35.708Z,41.50
2018-08-17T09:21:05.020Z,41.30
2018-08-17T09:23:34.294Z,41.00
2018-08-17T09:26:03.556Z,40.70
2018-08-17T09:28:32.752Z,40.30
2018-08-17T09:31:01.986Z,39.90
2018-08-17T09:33:31.333Z,39.40
2018-08-17T09:36:00.624Z,39.20
2018-08-17T09:38:29.912Z,38.70
2018-08-17T09:40:59.132Z,38.70
2018-08-17T09:43:28.423Z,38.40
2018-08-17T09:45:57.697Z,38.10
2018-08-17T09:48:27.008Z,37.80
2018-08-17T09:50:56.249Z,37.70
2018-08-17T09:53:25.507Z,37.60
2018-08-17T09:55:54.752Z,37.60
2018-08-17T09:58:24.139Z,37.40
2018-08-17T10:00:58.474Z,37.10
2018-08-17T10:03:32.835Z,36.80
2018-08-17T10:06:07.011Z,37.50
2018-08-17T10:08:41.387Z,36.90
2018-08-17T10:11:10.735Z,36.80
2018-08-17T10:13:39.970Z,36.50
2018-08-17T10:16:09.413Z,36.50
2018-08-17T10:18:43.707Z,36.50
2018-08-17T10:21:14.352Z,36.40
2018-08-17T10:23:43.456Z,36.20
2018-08-17T10:26:12.751Z,36.10
2018-08-17T10:28:41.898Z,35.90
2018-08-17T10:31:11.240Z,35.90
2018-08-17T10:33:40.424Z,35.70
2018-08-17T10:36:09.640Z,35.90
2018-08-17T10:38:38.878Z,36.10
2018-08-17T10:41:08.370Z,36.10
2018-08-17T10:43:37.546Z,35.90
2018-08-17T10:46:06.912Z,35.70
2018-08-17T10:48:36.217Z,35.50
2018-08-17T10:51:05.498Z,35.20
2018-08-17T10:53:39.603Z,34.60
2018-08-17T10:56:08.853Z,34.70
2018-08-17T10:58:38.100Z,34.50
2018-08-17T11:01:07.478Z,34.30
2018-08-17T11:03:36.749Z,34.30
2018-08-17T11:06:06.151Z,34.20
2018-08-17T11:08:35.410Z,34.20
2018-08-17T11:11:04.764Z,34.20
2018-08-17T11:13:34.101Z,34.20
2018-08-17T11:16:03.324Z,34.00
2018-08-17T11:18:32.764Z,33.80
2018-08-17T11:21:02.063Z,33.40
2018-08-17T11:23:31.356Z,33.30
2018-08-17T11:26:00.579Z,33.40
2018-08-17T11:28:30.016Z,32.70
2018-08-17T11:30:59.309Z,32.70
2018-08-17T11:33:29.671Z,32.40
2018-08-17T11:35:59.047Z,33.00
2018-08-17T11:38:28.289Z,32.20
2018-08-17T11:40:57.598Z,31.70
2018-08-17T11:43:26.900Z,31.40
2018-08-17T11:45:56.223Z,31.10
2018-08-17T11:48:35.375Z,31.10
2018-08-17T11:51:05.155Z,31.00
2018-08-17T11:53:34.423Z,30.90
2018-08-17T11:56:03.729Z,31.10
2018-08-17T11:58:32.943Z,31.30
2018-08-17T12:01:06.073Z,31.30
2018-08-17T12:03:35.211Z,31.40
2018-08-17T12:06:04.544Z,31.20
2018-08-17T12:08:33.712Z,30.70
2018-08-17T12:11:07.312Z,30.80
2018-08-17T12:13:39.380Z,29.90
2018-08-17T12:16:11.967Z,29.50
2018-08-17T12:18:41.315Z,29.30
2018-08-17T12:21:10.651Z,28.90
2018-08-17T12:23:39.911Z,28.60
2018-08-17T12:26:09.224Z,28.60
2018-08-17T12:28:38.446Z,28.50
2018-08-17T12:31:07.672Z,28.40
2018-08-17T12:33:36.927Z,28.30
2018-08-17T12:36:06.142Z,27.90
2018-08-17T12:38:35.329Z,27.90
2018-08-17T12:41:04.635Z,27.90
2018-08-17T12:43:35.671Z,27.70
2018-08-17T12:46:04.910Z,27.30
2018-08-17T12:48:34.131Z,27.30
2018-08-17T12:51:07.465Z,26.90
2018-08-17T12:53:36.756Z,26.80
2018-08-17T12:56:05.975Z,26.90
2018-08-17T12:58:35.147Z,26.90
2018-08-17T13:01:04.430Z,26.70
2018-08-17T13:03:33.665Z,26.60
2018-08-17T13:06:02.830Z,26.50
2018-08-17T13:08:32.078Z,26.30
2018-08-17T13:11:01.302Z,26.10
2018-08-17T13:13:30.575Z,26.00
2018-08-17T13:16:04.645Z,25.80
2018-08-17T13:18:36.191Z,25.80
2018-08-17T13:21:05.487Z,25.80
2018-08-17T13:23:34.882Z,26.00
2018-08-17T13:26:04.175Z,26.30
2018-08-17T13:28:33.412Z,26.20
2018-08-17T13:31:02.652Z,26.00
2018-08-17T13:33:31.952Z,25.90
2018-08-17T13:36:01.411Z,25.70
2018-08-17T13:38:30.711Z,25.80
2018-08-17T13:40:59.992Z,25.80
2018-08-17T13:43:29.308Z,25.80
2018-08-17T13:45:58.526Z,25.40
2018-08-17T13:48:27.811Z,25.60
2018-08-17T13:50:57.133Z,24.90
2018-08-17T13:53:26.447Z,25.40
2018-08-17T13:55:55.724Z,25.10
2018-08-17T13:58:24.945Z,25.30
2018-08-17T14:00:54.275Z,25.30
2018-08-17T14:03:23.532Z,25.30
2018-08-17T14:05:52.698Z,25.20
2018-08-17T14:08:22.048Z,25.20
2018-08-17T14:10:51.305Z,25.30
2018-08-17T14:13:20.579Z,25.50
2018-08-17T14:15:49.915Z,25.50
2018-08-17T14:18:19.120Z,25.20
2018-08-17T14:20:48.367Z,25.00
2018-08-17T14:23:17.638Z,25.40
2018-08-17T14:25:46.915Z,24.80
2018-08-17T14:28:16.160Z,24.80
2018-08-17T14:30:45.384Z,24.90
2018-08-17T14:33:14.638Z,24.70
2018-08-17T14:35:43.851Z,25.20
2018-08-17T14:38:13.011Z,25.10
2018-08-17T14:40:42.237Z,25.10
2018-08-17T14:43:11.453Z,25.40
2018-08-17T14:45:40.740Z,25.40
2018-08-17T14:48:10.079Z,25.40
2018-08-17T14:50:39.348Z,25.50
2018-08-17T14:53:08.687Z,25.40
2018-08-17T14:55:37.892Z,25.60
2018-08-17T14:58:07.224Z,25.80
2018-08-17T15:00:36.510Z,25.80
2018-08-17T15:03:05.868Z,25.80
2018-08-17T15:05:35.365Z,25.50
2018-08-17T15:08:04.695Z,25.40
2018-08-17T15:10:33.966Z,25.30
2018-08-17T15:13:03.327Z,25.30
2018-08-17T15:15:32.608Z,25.40
2018-08-17T15:18:01.842Z,25.90
2018-08-17T15:20:31.111Z,26.10
2018-08-17T15:23:00.357Z,26.10
2018-08-17T15:25:29.587Z,26.40
2018-08-17T15:27:58.833Z,26.20
2018-08-17T15:30:28.079Z,26.20
2018-08-17T15:32:57.338Z,26.20
2018-08-17T15:35:26.616Z,26.30
2018-08-17T15:37:55.862Z,26.20
2018-08-17T15:40:25.231Z,26.20
2018-08-17T15:42:58.632Z,25.90
2018-08-17T15:45:27.948Z,25.80
2018-08-17T15:47:57.307Z,25.90
2018-08-17T15:50:26.602Z,26.10
2018-08-17T15:52:55.899Z,25.90
2018-08-17T15:55:25.158Z,25.80
2018-08-17T15:57:54.489Z,26.10
2018-08-17T16:00:23.837Z,26.40
2018-08-17T16:02:53.055Z,26.70
2018-08-17T16:05:22.378Z,27.10
2018-08-17T16:07:51.618Z,27.40
2018-08-17T16:10:20.972Z,27.60
2018-08-17T16:12:50.222Z,27.60
2018-08-17T16:15:19.570Z,27.90
2018-08-17T16:17:48.763Z,28.00
2018-08-17T16:20:18.079Z,28.40
2018-08-17T16:22:47.321Z,28.80
2018-08-17T16:25:16.567Z,28.90
2018-08-17T16:27:45.828Z,29.30
2018-08-17T16:30:16.029Z,29.50
2018-08-17T16:32:45.355Z,29.70
2018-08-17T16:35:14.874Z,30.00
2018-08-17T16:37:47.417Z,30.50
2018-08-17T16:40:16.996Z,30.90
2018-08-17T16:42:49.904Z,31.40
2018-08-17T16:45:19.232Z,32.10
2018-08-17T16:47:48.469Z,32.90
2018-08-17T16:50:17.715Z,33.40
2018-08-17T16:52:46.972Z,33.40
2018-08-17T16:55:16.272Z,33.40
2018-08-17T16:57:45.472Z,33.50
2018-08-17T17:00:14.861Z,33.90
2018-08-17T17:02:44.144Z,34.60
2018-08-17T17:05:13.427Z,35.30
2018-08-17T17:07:42.792Z,35.90
2018-08-17T17:10:12.030Z,36.00
2018-08-17T17:12:41.432Z,35.90
2018-08-17T17:15:16.422Z,36.20
2018-08-17T17:17:54.169Z,36.60
2018-08-17T17:20:23.420Z,36.70
2018-08-17T17:22:52.796Z,37.30
2018-08-17T17:25:22.060Z,37.70
2018-08-17T17:27:51.360Z,37.50
2018-08-17T17:30:20.671Z,37.30
2018-08-17T17:32:50.018Z,37.30
2018-08-17T17:35:19.313Z,37.30
2018-08-17T17:37:48.607Z,37.50
2018-08-17T17:40:17.914Z,37.50
2018-08-17T17:42:47.157Z,37.90
2018-08-17T17:45:16.429Z,38.50
2018-08-17T17:47:45.730Z,39.10
2018-08-17T17:50:14.997Z,39.60
2018-08-17T17:52:44.247Z,39.80
2018-08-17T17:55:13.462Z,39.50
2018-08-17T17:57:42.935Z,38.60
2018-08-17T18:00:12.239Z,38.60
2018-08-17T18:02:41.657Z,39.10
2018-08-17T18:05:10.955Z,39.80
2018-08-17T18:07:44.320Z,40.40
2018-08-17T18:10:13.624Z,40.90
2018-08-17T18:12:42.842Z,41.40
2018-08-17T18:15:12.805Z,42.10
2018-08-17T18:17:42.572Z,42.60
2018-08-17T18:20:13.289Z,43.20
2018-08-17T18:22:42.680Z,43.70
2018-08-17T18:25:16.795Z,44.00
2018-08-17T18:27:46.666Z,44.30
2018-08-17T18:30:15.967Z,44.50
2018-08-17T18:32:45.607Z,44.80
2018-08-17T18:35:15.019Z,45.10
2018-08-17T18:37:44.329Z,45.40
2018-08-17T18:40:13.619Z,45.50
2018-08-17T18:42:42.941Z,45.70
2018-08-17T18:45:12.307Z,45.90
2018-08-17T18:47:41.628Z,46.00
2018-08-17T18:50:10.948Z,46.10
2018-08-17T18:52:40.295Z,46.30
2018-08-17T18:55:09.616Z,46.70
2018-08-17T18:57:39.006Z,46.80
2018-08-17T19:00:10.833Z,47.10
2018-08-17T19:02:40.107Z,47.40
2018-08-17T19:05:09.852Z,47.70
2018-08-17T19:07:39.560Z,48.00
2018-08-17T19:10:09.884Z,48.20
2018-08-17T19:12:39.127Z,48.40
2018-08-17T19:15:11.803Z,48.60
2018-08-17T19:17:41.547Z,48.80
2018-08-17T19:20:13.179Z,49.10
2018-08-17T19:22:44.263Z,49.60
2018-08-17T19:25:14.867Z,49.90
2018-08-17T19:27:44.506Z,50.30
2018-08-17T19:30:24.170Z,50.70
2018-08-17T19:32:55.655Z,50.70
2018-08-17T19:35:24.975Z,51.10
2018-08-17T19:37:54.338Z,51.30
2018-08-17T19:40:23.919Z,51.50
2018-08-17T19:42:53.186Z,51.70
2018-08-17T19:45:22.471Z,51.80
2018-08-17T19:47:51.722Z,51.90
2018-08-17T19:50:20.995Z,52.20
2018-08-17T19:52:50.198Z,52.10
2018-08-17T19:55:19.447Z,52.20
2018-08-17T19:57:48.649Z,52.10
2018-08-17T20:00:17.924Z,51.90
2018-08-17T20:02:47.215Z,52.00
2018-08-17T20:05:16.540Z,52.00
2018-08-17T20:07:45.784Z,51.90
2018-08-17T20:10:15.239Z,51.80
2018-08-17T20:12:44.559Z,52.00
2018-08-17T20:15:13.980Z,52.00
2018-08-17T20:17:48.728Z,52.20
2018-08-17T20:20:18.143Z,52.20
2018-08-17T20:22:47.472Z,52.40
2018-08-17T20:25:17.987Z,52.50
2018-08-17T20:27:47.594Z,52.70
2018-08-17T20:30:23.226Z,52.80
2018-08-17T20:32:52.524Z,52.90
2018-08-17T20:35:21.852Z,53.40
2018-08-17T20:37:53.747Z,53.50
2018-08-17T20:40:23.052Z,53.70
2018-08-17T20:42:52.329Z,53.90
2018-08-17T20:45:24.562Z,54.10
2018-08-17T20:47:54.091Z,54.30
2018-08-17T20:50:23.455Z,54.50
2018-08-17T20:52:57.783Z,54.70
2018-08-17T20:55:27.177Z,55.10
2018-08-17T20:57:57.374Z,55.40
2018-08-17T21:00:28.008Z,55.30
2018-08-17T21:02:57.401Z,55.40
2018-08-17T21:05:26.737Z,55.40
2018-08-17T21:07:55.883Z,55.40
2018-08-17T21:10:25.157Z,55.30
2018-08-17T21:12:54.406Z,55.30
2018-08-17T21:15:23.747Z,55.20
2018-08-17T21:17:53.019Z,55.00
2018-08-17T21:20:22.214Z,55.00
2018-08-17T21:22:51.446Z,55.10
2018-08-17T21:25:20.718Z,55.20
2018-08-17T21:27:50.027Z,55.30
2018-08-17T21:30:19.303Z,56.20
2018-08-17T21:32:48.570Z,55.40
2018-08-17T21:35:17.830Z,55.40
2018-08-17T21:37:47.092Z,55.50
2018-08-17T21:40:32.759Z,55.60
2018-08-17T21:43:02.419Z,55.80
2018-08-17T21:45:31.671Z,55.90
2018-08-17T21:48:00.990Z,56.20
2018-08-17T21:50:30.299Z,56.20
2018-08-17T21:52:59.583Z,56.30
2018-08-17T21:55:28.891Z,56.50
2018-08-17T21:57:58.173Z,56.70
2018-08-17T22:00:29.723Z,56.50
2018-08-17T22:02:59.310Z,56.50
2018-08-17T22:05:30.623Z,56.60
2018-08-17T22:08:00.470Z,57.30
2018-08-17T22:10:30.308Z,56.80
2018-08-17T22:12:59.592Z,56.90
2018-08-17T22:15:30.629Z,57.10
2018-08-17T22:18:00.005Z,58.00
2018-08-17T22:20:29.258Z,57.70
2018-08-17T22:22:59.732Z,58.00
2018-08-17T22:25:29.092Z,58.30
2018-08-17T22:27:58.370Z,58.40
2018-08-17T22:30:27.915Z,58.40
2018-08-17T22:32:57.220Z,58.60
2018-08-17T22:35:26.651Z,58.80
2018-08-17T22:37:55.870Z,58.90
2018-08-17T22:40:25.131Z,59.10
2018-08-17T22:42:54.451Z,59.20
2018-08-17T22:45:23.747Z,60.10
2018-08-17T22:47:53.079Z,59.60
2018-08-17T22:50:22.404Z,59.90
2018-08-17T22:52:51.736Z,60.00
2018-08-17T22:55:21.085Z,60.00
2018-08-17T22:57:50.427Z,60.90
2018-08-17T23:00:23.299Z,60.30
2018-08-17T23:02:53.745Z,60.20
2018-08-17T23:05:24.420Z,60.10
2018-08-17T23:07:53.684Z,60.80
2018-08-17T23:10:24.180Z,61.50
2018-08-17T23:12:54.136Z,61.00
2018-08-17T23:15:23.492Z,61.00
2018-08-17T23:17:56.727Z,61.00
2018-08-17T23:20:31.047Z,61.00
2018-08-17T23:23:01.531Z,61.10
2018-08-17T23:25:31.123Z,61.20
2018-08-17T23:28:00.448Z,61.40
2018-08-17T23:30:29.745Z,61.30
2018-08-17T23:32:59.050Z,61.50
2018-08-17T23:35:28.313Z,61.70
2018-08-17T23:37:57.654Z,61.70
2018-08-17T23:40:26.982Z,62.30
2018-08-17T23:42:56.341Z,62.50
2018-08-17T23:45:25.554Z,62.70
2018-08-17T23:47:54.830Z,63.00
2018-08-17T23:50:24.157Z,63.20
2018-08-17T23:52:53.463Z,63.30
2018-08-17T23:55:22.805Z,64.10
2018-08-17T23:57:52.119Z,63.70
